Latest Coastal Weather Observations for Stenhouse Bay

IDS60701

Issued at 3:51 pm CDT Sunday 26 March 2017 (issued every 10 minutes, with the page automatically refreshed every 10 minutes)

About coastal observations | Map of coastal stations | Coastal observations for SA | Marine services | Other Formats
Station Details ID: 022049 Name: STENHOUSE BAY Lat: -35.28 Lon: 136.94 Height: 42.0 m
Data from the previous 72 hours. | See also: Recent months at Stenhouse Bay
Date/Time
CDT
Temp
°C
Wind Pressure Rain since
9am
mm
Weather Cloud Vis
km
Sea
Height
m
Swell
Dir  Spd
kts
Gust
kts
hPa Trend Height
m
Period
s
Dir
26/03:30pm 22.6 E 10 15 1007.0 - 0.0 - - - - - - -
26/03:00pm 22.7 E 11 15 1007.9 - 0.0 - - - - - - -
26/02:30pm 24.0 E 9 11 1009.0 - 0.0 - - - - - - -
26/02:00pm 23.2 E 9 12 1009.5 - 0.0 - - - - - - -
26/01:30pm 22.9 E 7 10 1010.1 - 0.0 - - - - - - -
26/01:00pm 24.3 E 6 9 1010.8 - 0.0 - - - - - - -
26/12:30pm 22.0 ENE 7 10 1011.2 - 0.0 - - - - - - -
26/12:00pm 21.1 ENE 8 11 1011.3 - 0.0 - - - - - - -
26/11:30am 20.8 ENE 8 11 1012.1 - 0.0 - - - - - - -
26/11:00am 20.6 ENE 8 11 1012.4 - 0.0 - - - - - - -
26/10:30am 20.6 ENE 9 11 1012.4 - 0.0 - - - - - - -
26/10:00am 21.2 E 9 11 1012.5 - 0.0 - - - - - - -
26/09:30am 20.3 ESE 9 11 1012.8 - 0.0 - - - - - - -
26/09:00am 20.1 ESE 9 11 1012.6 - 0.0 - - - - - - -
26/08:30am 19.9 ESE 11 13 1012.2 - 0.0 - - - - - - -
26/08:00am 19.4 SE 10 13 1012.4 - 0.0 - - - - - - -
26/07:30am 19.6 ESE 10 12 1011.9 - 0.0 - - - - - - -
26/07:00am 19.4 ESE 10 12 1011.7 - 0.0 - - - - - - -
26/06:30am 19.4 ESE 9 12 1011.5 - 0.0 - - - - - - -
26/06:00am 19.7 E 7 9 1011.6 - 0.0 - - - - - - -
26/05:30am 19.6 E 8 11 1011.0 - 0.0 - - - - - - -
26/05:00am 19.5 E 10 13 1010.7 - 0.0 - - - - - - -
26/04:30am 19.3 E 11 14 1010.9 - 0.0 - - - - - - -
26/04:00am 19.0 E 10 14 1011.2 - 0.0 - - - - - - -
26/03:30am 19.1 E 10 15 1011.5 - 0.0 - - - - - - -
26/03:00am 19.0 E 10 13 1012.2 - 0.0 - - - - - - -
26/02:30am 18.9 E 9 11 1013.2 - 0.0 - - - - - - -
26/02:00am 18.9 E 9 11 1013.5 - 0.0 - - - - - - -
26/01:30am 18.9 ESE 8 12 1013.7 - 0.0 - - - - - - -
26/01:00am 18.9 E 8 11 1014.0 - 0.0 - - - - - - -
26/12:30am 19.0 E 10 12 1014.1 - 0.0 - - - - - - -
26/12:00am 19.0 E 10 13 1014.2 - 0.0 - - - - - - -
 
Date/Time
CDT
Temp
°C
Wind Pressure Rain since
9am
mm
Weather Cloud Vis
km
Sea
Height
m
Swell
Dir  Spd
kts
Gust
kts
hPa Trend Height
m
Period
s
Dir
25/11:30pm 19.0 E 11 14 1014.4 - 0.0 - - - - - - -
25/11:00pm 19.0 ESE 11 13 1014.7 - 0.0 - - - - - - -
25/10:30pm 19.2 E 11 13 1014.8 - 0.0 - - - - - - -
25/10:00pm 19.4 E 11 14 1014.5 - 0.0 - - - - - - -
25/09:30pm 19.7 E 12 15 1014.4 - 0.0 - - - - - - -
25/09:00pm 19.8 E 12 15 1014.2 - 0.0 - - - - - - -
25/08:30pm 19.9 E 13 16 1013.7 - 0.0 - - - - - - -
25/08:00pm 20.1 E 12 15 1013.4 - 0.0 - - - - - - -
25/07:30pm 20.2 E 10 13 1013.2 - 0.0 - - - - - - -
25/07:00pm 20.7 E 8 11 1013.2 - 0.0 - - - - - - -
25/06:30pm 20.8 E 8 11 1013.1 - 0.0 - - - - - - -
25/06:00pm 21.5 E 10 12 1012.8 - 0.0 - - - - - - -
25/05:30pm 23.2 ESE 7 10 1012.9 - 0.0 - - - - - - -
25/05:00pm 22.4 ESE 5 7 1013.1 - 0.0 - - - - - - -
25/04:30pm 22.6 E 6 7 1012.8 - 0.0 - - - - - - -
25/04:00pm 21.8 E 3 4 1013.0 - 0.0 - - - - - - -
25/03:30pm 21.9 E 2 4 1013.3 - 0.0 - - - - - - -
25/03:00pm 21.9 E 4 5 1013.4 - 0.0 - - - - - - -
25/02:30pm 22.8 ESE 5 6 1013.5 - 0.0 - - - - - - -
25/02:00pm 22.6 ESE 4 5 1013.9 - 0.0 - - - - - - -
25/01:30pm 22.8 SE 5 6 1014.0 - 0.0 - - - - - - -
25/01:00pm 22.4 SSE 5 7 1014.4 - 0.0 - - - - - - -
25/12:30pm 22.0 SSE 3 5 1014.7 - 0.0 - - - - - - -
25/12:00pm 21.4 SSW 4 5 1014.6 - 0.0 - - - - - - -
25/11:30am 21.1 S 3 4 1014.6 - 0.0 - - - - - - -
25/11:00am 21.2 SSW 3 5 1014.6 - 0.0 - - - - - - -
25/10:30am 20.9 SSW 4 5 1014.5 - 0.0 - - - - - - -
25/10:00am 20.9 SSW 4 6 1014.2 - 0.0 - - - - - - -
25/09:30am 20.5 SSW 5 7 1013.7 - 0.0 - - - - - - -
25/09:00am 20.3 SSW 5 7 1013.5 - 0.0 - - - - - - -
25/08:30am 19.8 SSW 5 7 1013.3 - 0.0 - - - - - - -
25/08:00am 19.7 SSW 8 11 1012.9 - 0.0 - - - - - - -
25/07:30am 19.6 SSW 9 12 1012.6 - 0.0 - - - - - - -
25/07:00am 19.5 SSW 10 14 1012.1 - 0.0 - - - - - - -
25/06:30am 19.0 SW 7 9 1011.8 - 0.0 - - - - - - -
25/06:00am 18.9 SW 8 11 1011.6 - 0.0 - - - - - - -
25/05:30am 19.1 SW 10 12 1011.3 - 0.0 - - - - - - -
25/05:00am 19.1 SW 9 11 1011.1 - 0.0 - - - - - - -
25/04:30am 19.2 SW 9 11 1011.0 - 0.0 - - - - - - -
25/04:00am 19.5 SW 9 12 1010.8 - 0.0 - - - - - - -
25/03:30am 19.5 SW 8 10 1010.9 - 0.0 - - - - - - -
25/03:00am 19.6 SW 9 11 1010.9 - 0.0 - - - - - - -
25/02:30am 19.4 SW 9 11 1011.5 - 0.0 - - - - - - -
25/02:00am 19.6 SW 7 9 1011.3 - 0.0 - - - - - - -
25/01:30am 19.5 SW 8 10 1011.5 - 0.0 - - - - - - -
25/01:00am 19.6 SW 10 12 1011.8 - 0.0 - - - - - - -
25/12:30am 20.0 WSW 8 10 1012.1 - 0.0 - - - - - - -
25/12:00am 20.7 WNW 4 7 1012.4 - 0.0 - - - - - - -
 
Date/Time
CDT
Temp
°C
Wind Pressure Rain since
9am
mm
Weather Cloud Vis
km
Sea
Height
m
Swell
Dir  Spd
kts
Gust
kts
hPa Trend Height
m
Period
s
Dir
24/11:30pm 20.6 WNW 3 5 1012.5 - 0.0 - - - - - - -
24/11:00pm 20.8 W 3 4 1012.6 - 0.0 - - - - - - -
24/10:30pm 21.1 WSW 8 10 1012.8 - 0.0 - - - - - - -
24/10:00pm 21.4 WNW 3 5 1012.8 - 0.0 - - - - - - -
24/09:30pm 21.8 SSW 4 7 1013.1 - 0.0 - - - - - - -
24/09:00pm 21.1 N 1 1 1012.4 - 0.0 - - - - - - -
24/08:30pm 21.4 E 2 3 1011.9 - 0.0 - - - - - - -
24/08:00pm 21.3 SSE 5 7 1011.5 - 0.0 - - - - - - -
24/07:30pm 21.5 SW 9 11 1012.5 - 0.0 - - - - - - -
24/07:00pm 21.7 SW 9 11 1012.4 - 0.0 - - - - - - -
24/06:30pm 22.3 SW 7 10 1012.1 - 0.0 - - - - - - -
24/06:00pm 23.2 SW 7 9 1012.1 - 0.0 - - - - - - -
24/05:30pm 23.4 SSW 3 4 1012.1 - 0.0 - - - - - - -
24/05:00pm 23.1 S 4 5 1011.9 - 0.0 - - - - - - -
24/04:30pm 23.4 SSW 4 6 1012.2 - 0.0 - - - - - - -
24/04:00pm 23.4 SSW 6 8 1012.4 - 0.0 - - - - - - -
24/03:30pm 23.4 SSW 6 9 1012.4 - 0.0 - - - - - - -
24/03:00pm 23.9 SSW 8 9 1012.5 - 0.0 - - - - - - -
24/02:30pm 23.1 SSW 7 8 1012.7 - 0.0 - - - - - - -
24/02:00pm 23.5 SSW 7 8 1012.8 - 0.0 - - - - - - -
24/01:30pm 23.6 SSE 5 7 1013.1 - 0.0 - - - - - - -
24/01:00pm 24.5 E 5 7 1013.1 - 0.0 - - - - - - -
24/12:30pm 23.8 E 5 7 1013.3 - 0.0 - - - - - - -
24/12:00pm 23.0 E 5 7 1013.8 - 0.0 - - - - - - -
24/11:30am 23.2 E 6 9 1013.7 - 0.0 - - - - - - -
24/11:00am 23.0 E 6 9 1013.9 - 0.0 - - - - - - -
24/10:30am 23.0 ENE 6 8 1013.9 - 0.0 - - - - - - -
24/10:00am 22.6 ENE 4 6 1014.2 - 0.0 - - - - - - -
24/09:30am 22.1 ENE 5 7 1013.9 - 0.0 - - - - - - -
24/09:00am 21.8 ENE 7 11 1014.1 - 0.0 - - - - - - -
24/08:30am 20.9 E 6 9 1014.2 - 0.0 - - - - - - -
24/08:00am 20.3 E 7 11 1013.9 - 0.0 - - - - - - -
24/07:30am 20.3 E 5 9 1014.1 - 0.0 - - - - - - -
24/07:00am 20.3 ENE 10 15 1013.6 - 0.0 - - - - - - -
24/06:30am 20.2 ENE 13 16 1013.1 - 0.0 - - - - - - -
24/06:00am 20.0 E 12 16 1013.2 - 0.0 - - - - - - -
24/05:30am 19.9 E 12 16 1013.3 - 0.0 - - - - - - -
24/05:00am 19.8 E 12 16 1013.8 - 0.0 - - - - - - -
24/04:30am 19.7 E 12 15 1013.8 - 0.0 - - - - - - -
24/04:00am 19.5 E 11 15 1013.9 - 0.0 - - - - - - -
24/03:30am 19.6 E 12 15 1014.1 - 0.0 - - - - - - -
24/03:00am 19.4 E 13 17 1014.4 - 0.0 - - - - - - -
24/02:30am 19.5 E 14 19 1014.7 - 0.0 - - - - - - -
24/02:00am 19.4 E 12 16 1015.1 - 0.0 - - - - - - -
24/01:30am 19.4 ESE 13 17 1015.5 - 0.0 - - - - - - -
24/01:00am 19.4 E 12 16 1015.7 - 0.0 - - - - - - -
24/12:30am 19.1 ESE 11 15 1016.1 - 0.0 - - - - - - -
24/12:00am 19.1 ESE 13 17 1016.3 - 0.0 - - - - - - -
 
Date/Time
CDT
Temp
°C
Wind Pressure Rain since
9am
mm
Weather Cloud Vis
km
Sea
Height
m
Swell
Dir  Spd
kts
Gust
kts
hPa Trend Height
m
Period
s
Dir
23/11:30pm 18.9 ESE 13 16 1016.9 - 0.0 - - - - - - -
23/11:00pm 18.9 SE 13 16 1017.2 - 0.0 - - - - - - -
23/10:30pm 18.9 ESE 13 16 1017.3 - 0.0 - - - - - - -
23/10:00pm 18.9 ESE 14 16 1017.3 - 0.0 - - - - - - -
23/09:30pm 18.9 ESE 13 16 1017.0 - 0.0 - - - - - - -
23/09:00pm 19.0 SE 11 15 1017.1 - 0.0 - - - - - - -
23/08:30pm 19.0 ESE 12 15 1016.5 - 0.0 - - - - - - -
23/08:00pm 19.2 SE 11 14 1016.4 - 0.0 - - - - - - -
23/07:30pm 19.7 ESE 11 14 1016.5 - 0.0 - - - - - - -
23/07:00pm 20.1 ESE 14 16 1016.2 - 0.0 - - - - - - -
23/06:30pm 20.4 ESE 12 15 1016.2 - 0.0 - - - - - - -
23/06:00pm 20.9 ESE 14 17 1016.0 - 0.0 - - - - - - -
23/05:30pm 21.8 E 11 14 1015.7 - 0.0 - - - - - - -
23/05:00pm 21.9 E 11 13 1015.9 - 0.0 - - - - - - -
23/04:30pm 21.9 ESE 9 11 1016.3 - 0.0 - - - - - - -
23/04:00pm 22.4 ESE 9 13 1016.1 - 0.0 - - - - - - -

Other Formats:

Comma delimited format used in spreadsheet applications
http://www.bom.gov.au/fwo/IDS60701/IDS60701.95806.axf

JavaScript Object Notation format (JSON) in row-major order
http://www.bom.gov.au/fwo/IDS60701/IDS60701.95806.json